Time;durP1;ratioP1;P1;durP2;ratioP2;P2;SDS_P1;SDS_P2;PMS_P1;PMS_P2;Temp;Humidity;BMP_temperature;BMP_pressure;BME280_temperature;BME280_humidity;BME280_pressure;Samples;Min_cycle;Max_cycle;Signal;HPM_P1;HPM_P2
2022/10/02 00:02:07;;;;;;;;;;;12.70;99.90;;;;;;5112897;28;19932;-82
2022/10/02 00:04:40;;;;;;;;;;;12.70;99.90;;;;;;5100924;28;19994;-82
2022/10/02 00:07:08;;;;;;;;;;;12.70;99.90;;;;;;5129955;28;20375;-83
2022/10/02 00:09:37;;;;;;;;;;;12.70;99.90;;;;;;5107114;28;20287;-82
2022/10/02 00:12:07;;;;;;;;;;;12.70;99.90;;;;;;5112584;28;19977;-82
2022/10/02 00:14:34;;;;;;;;;;;12.70;99.90;;;;;;5111630;28;19928;-84
2022/10/02 00:17:01;;;;;;;;;;;12.70;99.90;;;;;;5095416;28;20430;-82
2022/10/02 00:19:26;;;;;;;;;;;12.70;99.90;;;;;;5116568;28;19924;-81
2022/10/02 00:22:03;;;;;;;;;;;12.70;99.90;;;;;;5107969;28;20096;-82
2022/10/02 00:24:37;;;;;;;;;;;12.70;99.90;;;;;;5109902;28;19931;-81
2022/10/02 00:27:14;;;;;;;;;;;12.60;99.90;;;;;;5109792;28;20686;-82
2022/10/02 00:29:39;;;;;;;;;;;12.60;99.90;;;;;;5113786;28;19939;-82
2022/10/02 00:32:20;;;;;;;;;;;12.60;99.90;;;;;;5095956;28;19946;-81
2022/10/02 00:34:49;;;;;;;;;;;12.60;99.90;;;;;;5106846;28;20006;-82
2022/10/02 00:37:24;;;;;;;;;;;12.60;99.90;;;;;;5133194;28;20352;-82
2022/10/02 00:39:58;;;;;;;;;;;12.60;99.90;;;;;;5100069;28;19929;-82
2022/10/02 00:42:42;;;;;;;;;;;12.60;99.90;;;;;;5112111;28;20287;-82
2022/10/02 00:45:10;;;;;;;;;;;12.60;99.90;;;;;;5121647;28;19927;-81
2022/10/02 00:47:42;;;;;;;;;;;12.50;99.90;;;;;;5115665;27;20287;-86
2022/10/02 00:50:16;;;;;;;;;;;12.40;99.90;;;;;;5099573;27;19977;-81
2022/10/02 00:52:45;;;;;;;;;;;12.50;99.90;;;;;;5136308;27;20025;-81
2022/10/02 00:55:23;;;;;;;;;;;12.40;99.90;;;;;;5116679;27;20002;-82
2022/10/02 00:58:06;;;;;;;;;;;12.40;99.90;;;;;;5106709;28;20020;-81
2022/10/02 01:00:32;;;;;;;;;;;12.40;99.90;;;;;;5119201;27;19967;-82
2022/10/02 01:03:18;;;;;;;;;;;12.40;99.90;;;;;;5098072;28;20012;-82
2022/10/02 01:05:44;;;;;;;;;;;12.40;99.90;;;;;;5127692;27;19972;-81
2022/10/02 01:08:09;;;;;;;;;;;12.40;99.90;;;;;;5135891;27;20010;-82
2022/10/02 01:10:36;;;;;;;;;;;12.40;99.90;;;;;;5104743;28;19930;-82
2022/10/02 01:13:01;;;;;;;;;;;12.40;99.90;;;;;;5115364;27;19927;-82
2022/10/02 01:15:38;;;;;;;;;;;12.40;99.90;;;;;;5098588;28;19980;-82
2022/10/02 01:18:03;;;;;;;;;;;12.40;99.90;;;;;;5135314;27;19972;-82
2022/10/02 01:20:35;;;;;;;;;;;12.40;99.90;;;;;;5122464;27;19924;-82
2022/10/02 01:23:07;;;;;;;;;;;12.50;99.90;;;;;;5114131;28;20218;-82
2022/10/02 01:25:32;;;;;;;;;;;12.40;99.90;;;;;;5102405;27;19972;-83
2022/10/02 01:27:58;;;;;;;;;;;12.40;99.90;;;;;;5134934;27;19924;-82
2022/10/02 01:30:23;;;;;;;;;;;12.40;99.90;;;;;;5116422;27;20267;-82
2022/10/02 01:32:51;;;;;;;;;;;12.40;99.90;;;;;;5081089;28;20011;-82
2022/10/02 01:35:18;;;;;;;;;;;12.40;99.90;;;;;;5097843;28;19963;-81
2022/10/02 01:37:44;;;;;;;;;;;12.50;99.90;;;;;;5121653;27;20439;-82
2022/10/02 01:40:22;;;;;;;;;;;12.40;99.90;;;;;;5134142;27;19927;-81
2022/10/02 01:42:48;;;;;;;;;;;12.50;99.90;;;;;;5104368;28;20298;-83
2022/10/02 01:45:13;;;;;;;;;;;12.40;99.90;;;;;;5104186;28;20018;-81
2022/10/02 01:47:42;;;;;;;;;;;12.30;99.90;;;;;;5082285;27;20279;-82
2022/10/02 01:50:15;;;;;;;;;;;12.30;99.90;;;;;;5112895;28;19927;-82
2022/10/02 01:52:46;;;;;;;;;;;12.20;99.90;;;;;;5106330;27;19931;-81
2022/10/02 01:55:18;;;;;;;;;;;12.20;99.90;;;;;;5121496;27;19924;-81
2022/10/02 01:57:47;;;;;;;;;;;12.20;99.90;;;;;;5096925;28;19924;-81
2022/10/02 02:00:21;;;;;;;;;;;12.20;99.90;;;;;;5132625;27;19931;-82
2022/10/02 02:02:55;;;;;;;;;;;12.20;99.90;;;;;;5116901;27;19923;-82
2022/10/02 02:05:40;;;;;;;;;;;12.20;99.90;;;;;;5134770;27;20298;-81
2022/10/02 02:08:14;;;;;;;;;;;12.30;99.90;;;;;;5134887;27;19924;-81
2022/10/02 02:11:00;;;;;;;;;;;12.30;99.90;;;;;;5115535;27;19928;-81
2022/10/02 02:13:44;;;;;;;;;;;12.30;99.90;;;;;;5110492;27;19949;-81
2022/10/02 02:16:10;;;;;;;;;;;12.30;99.90;;;;;;5113547;28;20287;-81
2022/10/02 02:18:38;;;;;;;;;;;12.40;99.90;;;;;;5113958;28;19924;-81
2022/10/02 02:21:17;;;;;;;;;;;12.50;99.90;;;;;;5116480;27;19972;-80
2022/10/02 02:23:43;;;;;;;;;;;12.60;99.90;;;;;;5096142;28;20264;-83
2022/10/02 02:26:11;;;;;;;;;;;12.70;99.90;;;;;;5096961;28;20040;-80
2022/10/02 02:28:39;;;;;;;;;;;12.80;99.90;;;;;;5096663;28;20387;-80
2022/10/02 02:31:07;;;;;;;;;;;12.80;99.90;;;;;;5101744;27;20279;-81
2022/10/02 02:33:42;;;;;;;;;;;12.80;99.90;;;;;;5125559;27;19980;-82
2022/10/02 02:36:12;;;;;;;;;;;12.80;99.90;;;;;;5107461;28;19932;-81
2022/10/02 02:38:40;;;;;;;;;;;12.80;99.90;;;;;;5096387;28;19935;-81
2022/10/02 02:41:12;;;;;;;;;;;12.80;99.90;;;;;;5096629;28;19931;-80
2022/10/02 02:43:42;;;;;;;;;;;12.70;99.90;;;;;;5115342;27;19928;-81
2022/10/02 02:46:13;;;;;;;;;;;12.70;99.90;;;;;;5106304;27;19927;-81
2022/10/02 02:48:42;;;;;;;;;;;12.70;99.90;;;;;;5117097;27;19974;-81
2022/10/02 02:51:10;;;;;;;;;;;12.70;99.90;;;;;;5116443;27;20027;-80
2022/10/02 02:53:56;;;;;;;;;;;12.70;99.90;;;;;;5133840;27;20363;-81
2022/10/02 02:56:22;;;;;;;;;;;12.70;99.90;;;;;;5096134;28;19924;-81
2022/10/02 02:58:53;;;;;;;;;;;12.70;99.90;;;;;;5091223;27;19931;-81
2022/10/02 03:01:18;;;;;;;;;;;12.70;99.90;;;;;;5116611;27;19930;-80
2022/10/02 03:03:44;;;;;;;;;;;12.70;99.90;;;;;;5099665;27;20283;-81
2022/10/02 03:06:19;;;;;;;;;;;12.80;99.90;;;;;;5109681;28;20367;-81
2022/10/02 03:08:45;;;;;;;;;;;12.90;99.90;;;;;;5114847;27;19924;-80
2022/10/02 03:11:23;;;;;;;;;;;13.00;99.90;;;;;;5113564;27;19923;-81
2022/10/02 03:13:51;;;;;;;;;;;13.00;99.90;;;;;;5116529;27;19930;-80
2022/10/02 03:16:24;;;;;;;;;;;13.10;99.90;;;;;;5116368;27;19934;-81
2022/10/02 03:18:52;;;;;;;;;;;13.10;99.90;;;;;;5116418;27;19927;-81
2022/10/02 03:21:25;;;;;;;;;;;13.10;99.90;;;;;;5112571;28;20378;-80
2022/10/02 03:24:02;;;;;;;;;;;12.90;99.90;;;;;;5112075;27;20286;-80
2022/10/02 03:26:38;;;;;;;;;;;12.90;99.90;;;;;;5133792;27;20442;-80
2022/10/02 03:29:07;;;;;;;;;;;12.90;99.90;;;;;;5133378;27;19924;-81
2022/10/02 03:31:33;;;;;;;;;;;12.80;99.90;;;;;;5116386;27;19934;-81
2022/10/02 03:34:00;;;;;;;;;;;12.80;99.90;;;;;;5114522;28;19924;-81
2022/10/02 03:36:26;;;;;;;;;;;12.70;99.90;;;;;;5133718;28;20023;-81
2022/10/02 03:38:54;;;;;;;;;;;12.70;99.90;;;;;;5115610;28;19977;-81
2022/10/02 03:41:20;;;;;;;;;;;12.70;99.90;;;;;;5133380;28;19924;-81
2022/10/02 03:43:46;;;;;;;;;;;12.60;99.90;;;;;;5116061;28;20273;-81
2022/10/02 03:46:11;;;;;;;;;;;12.60;99.90;;;;;;5133002;28;19924;-81
2022/10/02 03:48:37;;;;;;;;;;;12.60;99.90;;;;;;5133381;28;19934;-81
2022/10/02 03:51:02;;;;;;;;;;;12.60;99.90;;;;;;5116050;28;19923;-81
2022/10/02 03:53:29;;;;;;;;;;;12.60;99.90;;;;;;5127431;28;19934;-81
2022/10/02 03:56:14;;;;;;;;;;;12.60;99.90;;;;;;5130425;28;19923;-81
2022/10/02 03:58:42;;;;;;;;;;;12.60;99.90;;;;;;5132826;28;20317;-81
2022/10/02 04:01:23;;;;;;;;;;;12.60;99.90;;;;;;5115564;28;19927;-81
2022/10/02 04:04:03;;;;;;;;;;;12.50;99.90;;;;;;5116115;28;19976;-81
2022/10/02 04:06:44;;;;;;;;;;;12.50;99.90;;;;;;5104141;28;20002;-81
2022/10/02 04:09:13;;;;;;;;;;;12.50;99.90;;;;;;5102518;28;19931;-81
2022/10/02 04:11:42;;;;;;;;;;;12.50;99.90;;;;;;5099506;28;20328;-80
2022/10/02 04:14:11;;;;;;;;;;;12.50;99.90;;;;;;5123684;28;19927;-82
2022/10/02 04:16:39;;;;;;;;;;;12.50;99.90;;;;;;5109734;28;20375;-81
2022/10/02 04:19:05;;;;;;;;;;;12.40;99.90;;;;;;5118151;28;19946;-81
2022/10/02 04:21:51;;;;;;;;;;;12.40;99.90;;;;;;5108599;27;20411;-81
2022/10/02 04:24:25;;;;;;;;;;;12.40;99.90;;;;;;5131839;27;19970;-81
2022/10/02 04:26:57;;;;;;;;;;;12.40;99.90;;;;;;5137386;27;19976;-81
2022/10/02 04:29:26;;;;;;;;;;;12.40;99.90;;;;;;5122394;27;20034;-81
2022/10/02 04:31:57;;;;;;;;;;;12.30;99.90;;;;;;5108716;27;20006;-80
2022/10/02 04:34:22;;;;;;;;;;;12.30;99.90;;;;;;5110247;28;19924;-81
2022/10/02 04:37:01;;;;;;;;;;;12.20;99.90;;;;;;5111795;27;19923;-81
2022/10/02 04:39:52;;;;;;;;;;;12.20;99.90;;;;;;5119266;27;20044;-81
2022/10/02 04:42:20;;;;;;;;;;;12.20;99.90;;;;;;5136680;27;19927;-81
2022/10/02 04:44:46;;;;;;;;;;;12.10;99.90;;;;;;5119006;27;20278;-81
2022/10/02 04:47:17;;;;;;;;;;;12.10;99.90;;;;;;5119104;27;19924;-81
2022/10/02 04:49:49;;;;;;;;;;;12.10;99.90;;;;;;5130654;27;19923;-81
2022/10/02 04:52:15;;;;;;;;;;;12.10;99.90;;;;;;5129743;27;20289;-80
2022/10/02 04:54:46;;;;;;;;;;;12.10;99.90;;;;;;5098961;28;19942;-81
2022/10/02 04:57:27;;;;;;;;;;;12.10;99.90;;;;;;5115620;28;19970;-81
2022/10/02 05:00:08;;;;;;;;;;;12.00;99.90;;;;;;5115353;28;19930;-84
2022/10/02 05:02:52;;;;;;;;;;;12.00;99.90;;;;;;5115865;28;19924;-81
2022/10/02 05:05:36;;;;;;;;;;;12.00;99.90;;;;;;5098176;28;20384;-81
2022/10/02 05:08:20;;;;;;;;;;;12.00;99.90;;;;;;5098665;28;19930;-81
2022/10/02 05:10:51;;;;;;;;;;;12.00;99.90;;;;;;5115629;28;19932;-81
2022/10/02 05:13:25;;;;;;;;;;;12.00;99.90;;;;;;5132837;27;20040;-81
2022/10/02 05:16:06;;;;;;;;;;;11.90;99.90;;;;;;5105725;27;19924;-81
2022/10/02 05:18:38;;;;;;;;;;;12.00;99.90;;;;;;5108148;27;20026;-82
2022/10/02 05:21:03;;;;;;;;;;;12.00;99.90;;;;;;5122267;27;19978;-81
2022/10/02 05:23:44;;;;;;;;;;;12.00;99.90;;;;;;5114093;27;19993;-81
2022/10/02 05:26:28;;;;;;;;;;;12.00;99.90;;;;;;5128376;27;19924;-85
2022/10/02 05:28:53;;;;;;;;;;;12.00;99.90;;;;;;5098506;28;19924;-81
2022/10/02 05:31:25;;;;;;;;;;;12.10;99.90;;;;;;5114850;28;20264;-81
2022/10/02 05:34:00;;;;;;;;;;;12.10;99.90;;;;;;5114903;28;19924;-81
2022/10/02 05:36:49;;;;;;;;;;;12.10;99.90;;;;;;5097694;28;20022;-81
2022/10/02 05:39:35;;;;;;;;;;;12.10;99.90;;;;;;5102089;27;19969;-82
2022/10/02 05:42:14;;;;;;;;;;;12.10;99.90;;;;;;5133572;27;19927;-81
2022/10/02 05:44:42;;;;;;;;;;;12.00;99.90;;;;;;5108725;27;19931;-81
2022/10/02 05:47:16;;;;;;;;;;;12.10;99.90;;;;;;5135259;27;19952;-80
2022/10/02 05:49:57;;;;;;;;;;;12.10;99.90;;;;;;5106071;28;20767;-80
2022/10/02 05:52:25;;;;;;;;;;;12.10;99.90;;;;;;5114413;27;19924;-81
2022/10/02 05:54:57;;;;;;;;;;;12.10;99.90;;;;;;5135074;27;19930;-79
2022/10/02 05:57:30;;;;;;;;;;;12.20;99.90;;;;;;5117560;27;20022;-80
2022/10/02 05:59:59;;;;;;;;;;;12.20;99.90;;;;;;5130401;27;19946;-81
2022/10/02 06:02:25;;;;;;;;;;;12.20;99.90;;;;;;5106802;27;19975;-82
2022/10/02 06:05:00;;;;;;;;;;;12.30;99.90;;;;;;5111212;27;20010;-80
2022/10/02 06:07:26;;;;;;;;;;;12.30;99.90;;;;;;5101274;27;20388;-82
2022/10/02 06:10:01;;;;;;;;;;;12.40;99.90;;;;;;5090936;27;19924;-80
2022/10/02 06:12:51;;;;;;;;;;;12.50;99.90;;;;;;5107132;27;19939;-80
2022/10/02 06:15:21;;;;;;;;;;;12.50;99.90;;;;;;5124730;27;19931;-84
2022/10/02 06:17:51;;;;;;;;;;;12.60;99.90;;;;;;5114123;28;19923;-83
2022/10/02 06:20:19;;;;;;;;;;;12.60;99.90;;;;;;5113695;28;20018;-90
2022/10/02 06:22:48;;;;;;;;;;;12.50;99.90;;;;;;5122695;27;19930;-86
2022/10/02 06:25:23;;;;;;;;;;;12.50;99.90;;;;;;5114593;27;19923;-80
2022/10/02 06:27:58;;;;;;;;;;;12.50;99.90;;;;;;5117010;27;19935;-80
2022/10/02 06:30:24;;;;;;;;;;;12.40;99.90;;;;;;5117319;27;19930;-81
2022/10/02 06:33:02;;;;;;;;;;;12.40;99.90;;;;;;5095422;28;19923;-81
2022/10/02 06:35:27;;;;;;;;;;;12.40;99.90;;;;;;5127351;27;19928;-82
2022/10/02 06:38:17;;;;;;;;;;;12.30;99.90;;;;;;5117453;27;19945;-81
2022/10/02 06:40:45;;;;;;;;;;;12.30;99.90;;;;;;5103759;27;20045;-81
2022/10/02 06:43:31;;;;;;;;;;;12.40;99.90;;;;;;5117120;27;19923;-81
2022/10/02 06:46:00;;;;;;;;;;;12.40;99.90;;;;;;5131853;27;19949;-81
2022/10/02 06:48:39;;;;;;;;;;;12.50;99.90;;;;;;5116673;27;19927;-81
2022/10/02 06:51:08;;;;;;;;;;;12.60;99.90;;;;;;5134340;27;19923;-81
2022/10/02 06:53:36;;;;;;;;;;;12.70;99.90;;;;;;5116928;27;19923;-80
2022/10/02 06:56:25;;;;;;;;;;;12.70;99.90;;;;;;5106608;27;19923;-81
2022/10/02 06:58:55;;;;;;;;;;;12.60;99.90;;;;;;5113883;27;20363;-81
2022/10/02 07:01:21;;;;;;;;;;;12.60;99.90;;;;;;5117237;27;20411;-82
2022/10/02 07:03:48;;;;;;;;;;;12.50;99.90;;;;;;5134002;27;19924;-81
2022/10/02 07:06:20;;;;;;;;;;;12.50;99.90;;;;;;5133775;27;19923;-81
2022/10/02 07:09:05;;;;;;;;;;;12.50;99.90;;;;;;5113333;28;19931;-81
2022/10/02 07:11:31;;;;;;;;;;;12.50;99.90;;;;;;5113266;28;19924;-80
2022/10/02 07:14:01;;;;;;;;;;;12.50;99.90;;;;;;5112800;28;19924;-80
2022/10/02 07:16:26;;;;;;;;;;;12.60;99.90;;;;;;5096069;28;19924;-81
2022/10/02 07:19:10;;;;;;;;;;;12.70;99.90;;;;;;5114280;27;19930;-81
2022/10/02 07:21:37;;;;;;;;;;;12.70;99.90;;;;;;5114963;27;20007;-81
2022/10/02 07:24:35;;;;;;;;;;;12.80;99.90;;;;;;5115978;27;19930;-80
2022/10/02 07:27:14;;;;;;;;;;;12.80;99.90;;;;;;5056907;28;20385;-84
2022/10/02 07:29:43;;;;;;;;;;;12.80;99.90;;;;;;5110330;28;20003;-81
2022/10/02 07:32:17;;;;;;;;;;;12.80;99.90;;;;;;5116508;27;20392;-80
2022/10/02 07:34:50;;;;;;;;;;;12.90;99.90;;;;;;5116067;28;20353;-80
2022/10/02 07:37:22;;;;;;;;;;;12.90;99.90;;;;;;5133654;28;19930;-80
2022/10/02 07:39:57;;;;;;;;;;;12.90;99.90;;;;;;5116295;28;19980;-81
2022/10/02 07:42:28;;;;;;;;;;;12.90;99.90;;;;;;5133555;28;20062;-80
2022/10/02 07:44:57;;;;;;;;;;;12.90;99.90;;;;;;5116347;28;20030;-80
2022/10/02 07:47:40;;;;;;;;;;;12.90;99.90;;;;;;5116469;28;19928;-80
2022/10/02 07:50:17;;;;;;;;;;;12.90;99.90;;;;;;5133630;28;19946;-80
2022/10/02 07:53:07;;;;;;;;;;;12.90;99.90;;;;;;5116076;28;20064;-80
2022/10/02 07:55:35;;;;;;;;;;;12.90;99.90;;;;;;5116427;28;19927;-81
2022/10/02 07:58:04;;;;;;;;;;;13.00;99.90;;;;;;5119194;27;20389;-80
2022/10/02 08:00:36;;;;;;;;;;;13.00;99.90;;;;;;5133718;27;19924;-80
2022/10/02 08:03:05;;;;;;;;;;;13.10;99.90;;;;;;5124482;27;19924;-80
2022/10/02 08:05:43;;;;;;;;;;;13.20;99.90;;;;;;5119801;27;19923;-80
2022/10/02 08:08:14;;;;;;;;;;;13.20;99.90;;;;;;5120816;27;19929;-80
2022/10/02 08:10:43;;;;;;;;;;;13.30;99.90;;;;;;5106613;28;19924;-80
2022/10/02 08:13:21;;;;;;;;;;;13.20;99.90;;;;;;5099580;28;19924;-80
2022/10/02 08:15:49;;;;;;;;;;;13.30;99.90;;;;;;5135040;27;20014;-80
2022/10/02 08:18:34;;;;;;;;;;;13.30;99.90;;;;;;5136625;27;19924;-80
2022/10/02 08:21:00;;;;;;;;;;;13.30;99.90;;;;;;5133765;27;20019;-80
2022/10/02 08:23:36;;;;;;;;;;;13.30;99.90;;;;;;5135737;27;19924;-81
2022/10/02 08:26:05;;;;;;;;;;;13.40;99.90;;;;;;5136635;27;19924;-80
2022/10/02 08:28:37;;;;;;;;;;;13.50;99.90;;;;;;5136420;27;20011;-82
2022/10/02 08:31:07;;;;;;;;;;;13.60;99.90;;;;;;5126755;27;19930;-80
2022/10/02 08:33:33;;;;;;;;;;;13.60;99.90;;;;;;5124652;27;19969;-81
2022/10/02 08:36:08;;;;;;;;;;;13.70;99.90;;;;;;5098644;28;19963;-80
2022/10/02 08:38:44;;;;;;;;;;;13.70;99.90;;;;;;5115699;28;20375;-81
2022/10/02 08:41:09;;;;;;;;;;;13.70;99.90;;;;;;5115828;28;19924;-81
2022/10/02 08:43:54;;;;;;;;;;;13.70;99.90;;;;;;5099108;28;19923;-81
2022/10/02 08:46:22;;;;;;;;;;;13.80;99.90;;;;;;5116132;28;19924;-80
2022/10/02 08:49:06;;;;;;;;;;;13.90;99.90;;;;;;5098968;28;20283;-80
2022/10/02 08:51:32;;;;;;;;;;;14.00;99.90;;;;;;5128146;27;19931;-82
2022/10/02 08:54:14;;;;;;;;;;;14.20;99.90;;;;;;5119072;27;20393;-80
2022/10/02 08:56:43;;;;;;;;;;;14.20;99.90;;;;;;5135834;27;19969;-81
2022/10/02 08:59:37;;;;;;;;;;;14.40;99.90;;;;;;5136534;27;20018;-80
2022/10/02 09:02:19;;;;;;;;;;;14.50;99.90;;;;;;5122051;27;20379;-81
2022/10/02 09:04:48;;;;;;;;;;;14.60;99.90;;;;;;5100291;28;19930;-80
2022/10/02 09:07:23;;;;;;;;;;;14.70;99.90;;;;;;5115738;28;19924;-80
2022/10/02 09:10:03;;;;;;;;;;;14.80;99.90;;;;;;5097806;28;20351;-81
2022/10/02 09:12:36;;;;;;;;;;;14.90;99.90;;;;;;5115350;28;19924;-81
2022/10/02 09:15:09;;;;;;;;;;;15.00;99.90;;;;;;5098519;28;20375;-81
2022/10/02 09:17:45;;;;;;;;;;;15.10;99.90;;;;;;5115158;28;20379;-81
2022/10/02 09:20:23;;;;;;;;;;;15.10;99.90;;;;;;5098376;28;19924;-88
2022/10/02 09:22:51;;;;;;;;;;;15.20;99.90;;;;;;5125729;27;19978;-82
2022/10/02 09:25:33;;;;;;;;;;;15.20;99.90;;;;;;5118628;27;19923;-80
2022/10/02 09:28:00;;;;;;;;;;;15.30;99.90;;;;;;5113545;28;19978;-77
2022/10/02 09:30:32;;;;;;;;;;;15.30;99.90;;;;;;5116558;27;19947;-80
2022/10/02 09:33:14;;;;;;;;;;;15.40;99.90;;;;;;5125428;27;19971;-81
2022/10/02 09:35:56;;;;;;;;;;;15.40;99.90;;;;;;5098291;28;19924;-82
2022/10/02 09:38:31;;;;;;;;;;;15.40;99.90;;;;;;5095105;28;19924;-80
2022/10/02 09:41:15;;;;;;;;;;;15.50;99.90;;;;;;5111381;27;20274;-80
2022/10/02 09:43:50;;;;;;;;;;;15.50;99.90;;;;;;5106882;27;19972;-83
2022/10/02 09:46:34;;;;;;;;;;;15.50;99.90;;;;;;5123020;27;20018;-84
2022/10/02 09:49:00;;;;;;;;;;;15.50;99.90;;;;;;5133283;27;19924;-83
2022/10/02 09:51:38;;;;;;;;;;;15.60;99.90;;;;;;5105160;27;19934;-84
2022/10/02 09:54:23;;;;;;;;;;;15.70;99.90;;;;;;5131333;27;19924;-82
2022/10/02 09:56:52;;;;;;;;;;;15.70;99.90;;;;;;5126432;27;20379;-80
2022/10/02 09:59:30;;;;;;;;;;;15.60;99.90;;;;;;5133865;27;20621;-80
2022/10/02 10:02:14;;;;;;;;;;;15.70;99.90;;;;;;5134177;27;19971;-80
2022/10/02 10:04:55;;;;;;;;;;;15.70;99.90;;;;;;5133327;27;20336;-81
2022/10/02 10:07:39;;;;;;;;;;;15.80;99.90;;;;;;5106804;28;19924;-82
2022/10/02 10:10:17;;;;;;;;;;;15.80;99.90;;;;;;5095749;28;20321;-81
2022/10/02 10:12:52;;;;;;;;;;;15.80;99.90;;;;;;5116245;27;19927;-81
2022/10/02 10:15:50;;;;;;;;;;;15.90;99.90;;;;;;5103161;27;19932;-80
2022/10/02 10:18:41;;;;;;;;;;;15.90;99.90;;;;;;5061180;27;19950;-80
2022/10/02 10:21:32;;;;;;;;;;;15.90;99.90;;;;;;5133155;27;19931;-81
2022/10/02 10:24:13;;;;;;;;;;;16.00;99.90;;;;;;5115944;27;20026;-82
2022/10/02 10:27:00;;;;;;;;;;;16.00;99.90;;;;;;5121466;27;19931;-82
2022/10/02 10:29:37;;;;;;;;;;;15.90;99.90;;;;;;5113376;28;20278;-82
2022/10/02 10:32:22;;;;;;;;;;;16.00;99.90;;;;;;5113016;28;19981;-80
2022/10/02 10:34:53;;;;;;;;;;;16.00;99.90;;;;;;5127866;27;19931;-83
2022/10/02 10:40:48;;;;;;;;;;;16.10;99.90;;;;;;5053865;28;20435;-82
2022/10/02 10:43:19;;;;;;;;;;;16.10;99.90;;;;;;5035099;28;19924;-83
2022/10/02 10:46:05;;;;;;;;;;;16.20;99.90;;;;;;5081411;28;19924;-84
2022/10/02 10:48:37;;;;;;;;;;;16.20;99.90;;;;;;5095529;28;19924;-80
2022/10/02 10:51:15;;;;;;;;;;;16.30;99.90;;;;;;5112381;28;19924;-81
2022/10/02 10:53:53;;;;;;;;;;;16.40;99.90;;;;;;5123515;27;19923;-80
2022/10/02 10:56:39;;;;;;;;;;;16.40;99.90;;;;;;5121314;27;20274;-80
2022/10/02 10:59:15;;;;;;;;;;;16.20;99.90;;;;;;5083947;28;19923;-80
2022/10/02 11:01:50;;;;;;;;;;;16.20;99.90;;;;;;5095359;28;19923;-80
2022/10/02 11:04:38;;;;;;;;;;;16.40;99.90;;;;;;5095388;28;20342;-80
2022/10/02 11:07:08;;;;;;;;;;;16.40;99.90;;;;;;5127671;27;19927;-80
2022/10/02 11:09:42;;;;;;;;;;;16.50;99.90;;;;;;5109967;28;19927;-81
2022/10/02 11:12:15;;;;;;;;;;;16.70;99.90;;;;;;5093342;28;19935;-84
2022/10/02 11:14:50;;;;;;;;;;;16.90;99.90;;;;;;5093555;28;19924;-81
2022/10/02 11:17:35;;;;;;;;;;;17.10;99.90;;;;;;5125889;27;19924;-80
2022/10/02 11:20:03;;;;;;;;;;;17.00;99.90;;;;;;5114527;28;19931;-83
2022/10/02 11:22:38;;;;;;;;;;;17.30;99.90;;;;;;5094793;28;19985;-84
2022/10/02 11:25:13;;;;;;;;;;;17.40;99.90;;;;;;5095103;28;19923;-84
2022/10/02 11:27:57;;;;;;;;;;;17.60;99.90;;;;;;5113008;28;19930;-82
2022/10/02 11:30:22;;;;;;;;;;;17.80;99.90;;;;;;5096013;28;19982;-84
2022/10/02 11:33:09;;;;;;;;;;;17.70;99.90;;;;;;5095266;28;19971;-80
2022/10/02 11:35:35;;;;;;;;;;;17.80;99.90;;;;;;5112856;28;19924;-79
2022/10/02 11:38:00;;;;;;;;;;;17.90;99.90;;;;;;5097028;28;20375;-81
2022/10/02 11:40:41;;;;;;;;;;;18.10;99.90;;;;;;5114171;28;19967;-80
2022/10/02 11:43:10;;;;;;;;;;;18.20;99.90;;;;;;5125709;28;19924;-80
2022/10/02 11:45:54;;;;;;;;;;;18.30;99.90;;;;;;5132932;28;19970;-80
2022/10/02 11:48:34;;;;;;;;;;;18.20;99.90;;;;;;5111033;28;19981;-81
2022/10/02 11:51:19;;;;;;;;;;;17.80;99.90;;;;;;5112938;28;19946;-80
2022/10/02 11:53:57;;;;;;;;;;;18.00;99.90;;;;;;5112645;28;19924;-80
2022/10/02 11:56:41;;;;;;;;;;;18.20;99.90;;;;;;5095608;28;20345;-81
2022/10/02 11:59:17;;;;;;;;;;;18.40;99.90;;;;;;5094302;28;19931;-87
2022/10/02 12:01:51;;;;;;;;;;;18.60;99.90;;;;;;5112155;28;19923;-81
2022/10/02 12:04:32;;;;;;;;;;;18.50;99.90;;;;;;5098784;28;19935;-81
2022/10/02 12:07:17;;;;;;;;;;;18.60;99.90;;;;;;5092504;28;19977;-83
2022/10/02 12:09:48;;;;;;;;;;;18.60;99.90;;;;;;5112823;28;19924;-80
2022/10/02 12:12:18;;;;;;;;;;;18.70;99.90;;;;;;5131982;28;20427;-82
2022/10/02 12:14:46;;;;;;;;;;;18.80;99.90;;;;;;5113531;28;20383;-82
2022/10/02 12:17:30;;;;;;;;;;;18.90;99.90;;;;;;5093979;28;19974;-84
2022/10/02 12:29:04;;;;;;;;;;;19.10;99.90;;;;;;5120812;28;19924;-81
2022/10/02 12:31:30;;;;;;;;;;;19.40;99.90;;;;;;5116819;28;19928;-81
2022/10/02 12:34:07;;;;;;;;;;;19.30;99.90;;;;;;5106674;28;19928;-82
2022/10/02 12:36:33;;;;;;;;;;;19.30;99.90;;;;;;5093262;28;19931;-82
2022/10/02 12:38:59;;;;;;;;;;;19.30;99.90;;;;;;5110307;28;19928;-81
2022/10/02 12:41:31;;;;;;;;;;;19.40;99.90;;;;;;5102208;28;20339;-82
2022/10/02 12:44:15;;;;;;;;;;;19.50;99.90;;;;;;5125398;27;20052;-82
2022/10/02 12:47:00;;;;;;;;;;;19.70;99.90;;;;;;5097135;28;19924;-80
2022/10/02 12:49:44;;;;;;;;;;;19.70;99.90;;;;;;5125052;27;19928;-81
2022/10/02 12:52:17;;;;;;;;;;;19.70;99.90;;;;;;5134712;27;19974;-84
2022/10/02 12:54:58;;;;;;;;;;;19.80;99.90;;;;;;5109783;28;19932;-79
2022/10/02 13:00:15;;;;;;;;;;;20.10;99.90;;;;;;5115845;27;19927;-80
2022/10/02 13:02:54;;;;;;;;;;;20.20;99.90;;;;;;5115818;27;19935;-83
2022/10/02 13:05:31;;;;;;;;;;;20.50;99.90;;;;;;5116145;27;19924;-77
2022/10/02 13:08:09;;;;;;;;;;;20.60;99.90;;;;;;5128947;27;19927;-77
2022/10/02 13:10:56;;;;;;;;;;;20.50;99.90;;;;;;5118001;27;19955;-76
2022/10/02 13:13:34;;;;;;;;;;;20.70;99.90;;;;;;5112380;28;19928;-77
2022/10/02 13:16:04;;;;;;;;;;;20.70;99.90;;;;;;5112147;28;19923;-76
2022/10/02 13:18:30;;;;;;;;;;;20.50;99.90;;;;;;5110629;27;19928;-75
2022/10/02 13:21:06;;;;;;;;;;;20.40;99.90;;;;;;5097401;28;19977;-82
2022/10/02 13:23:32;;;;;;;;;;;20.40;99.90;;;;;;5096137;28;19931;-83
2022/10/02 13:26:05;;;;;;;;;;;20.30;99.90;;;;;;5096234;28;19931;-82
2022/10/02 13:28:31;;;;;;;;;;;20.30;99.90;;;;;;5101071;27;19924;-83
2022/10/02 13:30:56;;;;;;;;;;;20.50;99.90;;;;;;5101051;27;20279;-83
2022/10/02 13:33:22;;;;;;;;;;;20.70;99.90;;;;;;5127498;27;19928;-81
2022/10/02 13:35:56;;;;;;;;;;;20.70;99.90;;;;;;5098863;27;19932;-82
2022/10/02 13:38:28;;;;;;;;;;;20.90;99.90;;;;;;5122193;27;20010;-82
2022/10/02 13:41:03;;;;;;;;;;;20.90;99.90;;;;;;5110083;28;19924;-83
2022/10/02 13:43:28;;;;;;;;;;;20.80;99.90;;;;;;5099864;27;20026;-83
2022/10/02 13:46:17;;;;;;;;;;;20.90;99.90;;;;;;5114067;27;20018;-82
2022/10/02 13:49:01;;;;;;;;;;;21.00;99.90;;;;;;5119662;27;19923;-77
2022/10/02 13:51:33;;;;;;;;;;;20.90;99.90;;;;;;5117958;27;19981;-86
2022/10/02 13:54:04;;;;;;;;;;;20.90;99.90;;;;;;5100415;27;20106;-80
2022/10/02 13:56:36;;;;;;;;;;;20.70;99.90;;;;;;5116326;27;19929;-80
2022/10/02 13:59:24;;;;;;;;;;;20.40;99.90;;;;;;5114702;27;20362;-81
2022/10/02 14:02:10;;;;;;;;;;;20.30;99.90;;;;;;5116086;27;19969;-82
2022/10/02 14:04:42;;;;;;;;;;;20.60;99.90;;;;;;5114903;27;19927;-82
2022/10/02 14:07:20;;;;;;;;;;;21.00;99.90;;;;;;5131936;27;19931;-83
2022/10/02 14:09:45;;;;;;;;;;;21.20;99.90;;;;;;5133306;27;19923;-82
2022/10/02 14:12:21;;;;;;;;;;;21.10;99.90;;;;;;5132788;27;20334;-84
2022/10/02 14:14:56;;;;;;;;;;;21.10;99.90;;;;;;5132293;27;20328;-82
2022/10/02 14:17:21;;;;;;;;;;;21.00;99.90;;;;;;5115889;27;20275;-82
2022/10/02 14:20:06;;;;;;;;;;;21.30;99.90;;;;;;5128898;27;19923;-82
2022/10/02 14:22:34;;;;;;;;;;;21.10;99.90;;;;;;5133485;27;19927;-82
2022/10/02 14:25:07;;;;;;;;;;;21.20;99.90;;;;;;5106032;28;19934;-81
2022/10/02 14:27:51;;;;;;;;;;;21.20;99.90;;;;;;5095600;28;19928;-83
2022/10/02 14:30:18;;;;;;;;;;;21.30;99.90;;;;;;5130196;27;19927;-81
2022/10/02 14:33:07;;;;;;;;;;;20.40;99.90;;;;;;5103252;28;20390;-81
2022/10/02 14:35:38;;;;;;;;;;;19.70;99.90;;;;;;5092832;28;20380;-83
2022/10/02 14:38:13;;;;;;;;;;;19.40;99.90;;;;;;5101678;27;19934;-82
2022/10/02 14:40:44;;;;;;;;;;;19.80;99.90;;;;;;5109769;28;19930;-81
2022/10/02 14:43:17;;;;;;;;;;;20.20;99.90;;;;;;5117720;27;20380;-83
2022/10/02 14:45:50;;;;;;;;;;;20.80;99.90;;;;;;5101432;28;19980;-81
2022/10/02 14:48:36;;;;;;;;;;;20.90;99.90;;;;;;5115289;27;19927;-82
2022/10/02 14:51:11;;;;;;;;;;;21.10;99.90;;;;;;5122084;27;19928;-79
2022/10/02 14:53:43;;;;;;;;;;;20.90;99.90;;;;;;5111475;27;19967;-83
2022/10/02 14:56:15;;;;;;;;;;;21.00;99.90;;;;;;5097052;28;20580;-81
2022/10/02 14:58:59;;;;;;;;;;;20.90;99.90;;;;;;5119309;27;20345;-81
2022/10/02 15:01:25;;;;;;;;;;;20.70;99.90;;;;;;5112168;28;19935;-79
2022/10/02 15:04:10;;;;;;;;;;;20.00;99.90;;;;;;5098046;27;19924;-79
2022/10/02 15:06:44;;;;;;;;;;;19.40;99.90;;;;;;5112433;27;20796;-80
2022/10/02 15:09:28;;;;;;;;;;;18.70;99.90;;;;;;5101100;28;19923;-82
2022/10/02 15:12:03;;;;;;;;;;;18.20;99.90;;;;;;5118296;27;19927;-81